createdAt,value
2019-05-19T00:07:51.102Z,16.50
2019-05-19T00:10:19.868Z,16.23
2019-05-19T00:12:48.718Z,16.53
2019-05-19T00:15:17.544Z,15.47
2019-05-19T00:17:46.618Z,15.43
2019-05-19T00:20:15.830Z,11.43
2019-05-19T00:22:44.857Z,12.10
2019-05-19T00:25:13.994Z,12.30
2019-05-19T00:27:42.853Z,13.43
2019-05-19T00:30:11.977Z,13.97
2019-05-19T00:32:40.879Z,14.50
2019-05-19T00:35:10.060Z,15.30
2019-05-19T00:37:39.129Z,15.03
2019-05-19T00:40:09.389Z,15.77
2019-05-19T00:42:38.465Z,16.53
2019-05-19T00:45:09.031Z,17.33
2019-05-19T00:47:38.072Z,16.70
2019-05-19T00:50:10.362Z,16.57
2019-05-19T00:52:40.350Z,16.60
2019-05-19T00:55:09.331Z,14.37
2019-05-19T00:57:39.071Z,13.97
2019-05-19T01:00:12.030Z,14.80
2019-05-19T01:02:40.783Z,15.63
2019-05-19T01:05:10.252Z,16.93
2019-05-19T01:07:39.077Z,16.70
2019-05-19T01:10:08.621Z,16.43
2019-05-19T01:12:37.462Z,15.13
2019-05-19T01:15:07.555Z,15.97
2019-05-19T01:17:36.540Z,14.33
2019-05-19T01:20:08.520Z,13.93
2019-05-19T01:22:37.442Z,14.53
2019-05-19T01:25:08.160Z,16.37
2019-05-19T01:27:36.976Z,16.00
2019-05-19T01:30:09.967Z,16.50
2019-05-19T01:32:39.046Z,15.80
2019-05-19T01:35:08.306Z,14.57
2019-05-19T01:37:37.425Z,14.00
2019-05-19T01:40:07.960Z,12.87
2019-05-19T01:42:37.001Z,12.90
2019-05-19T01:45:09.696Z,13.53
2019-05-19T01:47:38.499Z,14.40
